Time;durP1;ratioP1;P1;durP2;ratioP2;P2;SDS_P1;SDS_P2;PMS_P1;PMS_P2;Temp;Humidity;BMP_temperature;BMP_pressure;BME280_temperature;BME280_humidity;BME280_pressure;Samples;Min_cycle;Max_cycle;Signal;HPM_P1;HPM_P2
2022/05/17 00:00:07;;;;;;;10.00;3.45;;;;;;;15.87;69.40;101758.03;3574633;40;20053;-63
2022/05/17 00:02:32;;;;;;;8.13;3.67;;;;;;;15.78;69.52;101766.78;3574204;40;20053;-64
2022/05/17 00:04:58;;;;;;;10.93;3.63;;;;;;;15.77;70.25;101767.78;3574023;40;20512;-63
2022/05/17 00:07:23;;;;;;;8.98;3.83;;;;;;;15.75;70.63;101764.28;3574563;40;20295;-63
2022/05/17 00:09:49;;;;;;;11.80;3.72;;;;;;;15.64;70.46;101753.28;3573586;40;20060;-63
2022/05/17 00:12:15;;;;;;;9.20;3.78;;;;;;;15.72;69.94;101767.22;3573450;40;20045;-64
2022/05/17 00:14:40;;;;;;;12.48;4.13;;;;;;;15.70;69.93;101771.88;3576032;40;20360;-64
2022/05/17 00:17:06;;;;;;;12.23;4.25;;;;;;;15.68;69.86;101769.25;3577714;40;20059;-63
2022/05/17 00:19:32;;;;;;;10.10;3.97;;;;;;;15.44;69.91;101722.97;3575693;40;20061;-63
2022/05/17 00:21:58;;;;;;;9.10;4.25;;;;;;;15.55;69.84;101735.81;3575674;40;20110;-63
2022/05/17 00:24:26;;;;;;;10.95;4.10;;;;;;;15.62;69.93;101741.69;3574425;40;20052;-64
2022/05/17 00:26:52;;;;;;;11.32;4.32;;;;;;;15.62;70.49;101742.53;3574888;40;20072;-64
2022/05/17 00:29:18;;;;;;;11.57;4.32;;;;;;;15.63;70.57;101746.97;3575339;40;20049;-64
2022/05/17 00:31:44;;;;;;;8.48;4.05;;;;;;;15.55;71.05;101731.25;3575392;40;20129;-64
2022/05/17 00:34:09;;;;;;;13.40;4.60;;;;;;;15.64;70.96;101737.91;3576090;40;20049;-64
2022/05/17 00:36:37;;;;;;;8.60;4.60;;;;;;;15.65;71.05;101744.19;3575426;40;20060;-63
2022/05/17 00:39:03;;;;;;;11.52;4.22;;;;;;;15.69;71.12;101753.88;3576254;40;20060;-64
2022/05/17 00:41:28;;;;;;;11.85;4.28;;;;;;;15.68;71.37;101746.72;3575972;40;20052;-63
2022/05/17 00:47:06;;;;;;;10.32;4.38;;;;;;;15.69;70.84;101740.31;3575149;40;20081;-63
2022/05/17 00:49:45;;;;;;;11.65;4.32;;;;;;;15.75;70.31;101742.59;3573517;40;20052;-63
2022/05/17 00:52:25;;;;;;;8.75;4.75;;;;;;;15.82;70.47;101738.47;3572102;40;20052;-64
2022/05/17 00:54:57;;;;;;;8.02;4.10;;;;;;;15.86;70.01;101734.59;3574602;40;20069;-64
2022/05/17 00:57:46;;;;;;;14.80;4.88;;;;;;;15.91;69.63;101736.97;3576009;40;20049;-63
2022/05/17 01:00:16;;;;;;;11.57;4.45;;;;;;;15.71;69.76;101695.00;3574413;40;20071;-63
2022/05/17 01:02:49;;;;;;;12.23;4.18;;;;;;;15.95;69.89;101733.97;3575383;40;20037;-64
2022/05/17 01:05:19;;;;;;;16.95;4.35;;;;;;;15.96;69.83;101729.41;3575352;40;20083;-63
2022/05/17 01:07:54;;;;;;;6.72;4.40;;;;;;;15.88;69.73;101720.94;3573926;40;20387;-64
2022/05/17 01:10:21;;;;;;;7.47;4.30;;;;;;;15.90;69.75;101719.84;3575417;40;20060;-64
2022/05/17 01:14:57;;;;;;;9.38;4.32;;;;;;;15.96;69.20;101723.97;3574168;40;20050;-63
2022/05/17 01:15:34;;;;;;;10.02;3.97;;;;;;;15.90;69.40;101722.56;3576151;40;20063;-63
2022/05/17 01:18:02;;;;;;;7.65;4.28;;;;;;;15.86;70.03;101723.75;3575066;40;20119;-64
2022/05/17 01:20:28;;;;;;;11.48;4.38;;;;;;;15.85;69.59;101723.84;3575229;40;20063;-64
2022/05/17 01:22:53;;;;;;;11.45;4.70;;;;;;;15.79;69.90;101722.44;3574399;40;20128;-66
2022/05/17 01:25:19;;;;;;;12.32;4.55;;;;;;;15.82;69.75;101724.06;3576420;40;20053;-65
2022/05/17 01:28:15;;;;;;;10.73;4.93;;;;;;;15.81;69.89;101725.91;3575061;40;20056;-63
2022/05/17 01:30:41;;;;;;;9.57;4.50;;;;;;;15.82;69.46;101718.63;3573782;40;20044;-63
2022/05/17 01:33:16;;;;;;;10.05;4.15;;;;;;;15.85;69.81;101722.00;3575200;40;20055;-64
2022/05/17 01:35:43;;;;;;;12.05;4.45;;;;;;;15.88;69.66;101734.47;3575276;40;20057;-64
2022/05/17 01:38:09;;;;;;;8.57;4.25;;;;;;;15.86;70.05;101737.31;3575836;40;20083;-63
2022/05/17 01:40:36;;;;;;;9.70;4.50;;;;;;;15.89;70.29;101728.97;3574467;40;20048;-63
2022/05/17 01:43:02;;;;;;;10.85;4.72;;;;;;;15.88;70.61;101726.34;3574453;40;20126;-64
2022/05/17 01:45:27;;;;;;;9.32;4.28;;;;;;;15.91;70.24;101727.00;3576428;40;20056;-65
2022/05/17 01:47:54;;;;;;;11.70;4.65;;;;;;;15.86;70.55;101712.91;3575448;40;20060;-64
2022/05/17 01:50:20;;;;;;;9.15;4.68;;;;;;;15.93;70.17;101716.91;3574752;40;20447;-63
2022/05/17 01:52:45;;;;;;;11.38;4.45;;;;;;;15.97;70.47;101714.84;3574523;40;20048;-64
2022/05/17 01:55:12;;;;;;;10.93;4.65;;;;;;;16.05;69.82;101731.47;3573843;40;20052;-63
2022/05/17 01:57:38;;;;;;;11.40;4.32;;;;;;;16.09;69.74;101724.84;3576353;40;20053;-63
2022/05/17 02:00:08;;;;;;;10.65;4.60;;;;;;;16.11;69.63;101722.00;3575070;40;20295;-65
2022/05/17 02:02:34;;;;;;;10.68;4.43;;;;;;;16.19;69.25;101725.91;3575583;40;20051;-63
2022/05/17 02:05:00;;;;;;;10.23;4.60;;;;;;;16.23;68.67;101726.56;3574885;40;20052;-62
2022/05/17 02:07:25;;;;;;;12.35;4.63;;;;;;;16.22;69.13;101723.00;3575415;40;20065;-64
2022/05/17 02:09:51;;;;;;;13.25;5.05;;;;;;;16.30;68.37;101730.59;3574736;40;20052;-64
2022/05/17 02:12:17;;;;;;;11.52;4.75;;;;;;;16.30;68.35;101725.19;3574154;40;20489;-63
2022/05/17 02:14:44;;;;;;;14.38;4.45;;;;;;;16.12;68.86;101691.22;3571660;40;20067;-64
2022/05/17 02:17:10;;;;;;;12.73;5.00;;;;;;;16.17;68.76;101697.16;3574626;40;20059;-63
2022/05/17 02:19:36;;;;;;;10.35;5.32;;;;;;;16.29;68.66;101726.13;3575165;40;20395;-63
2022/05/17 02:22:02;;;;;;;12.70;4.78;;;;;;;16.28;68.35;101712.69;3574450;40;20059;-64
2022/05/17 02:24:28;;;;;;;13.02;4.55;;;;;;;16.31;68.73;101721.47;3574462;40;20086;-66
2022/05/17 02:26:55;;;;;;;12.57;4.60;;;;;;;16.22;68.83;101709.44;3572482;40;20069;-63
2022/05/17 02:29:21;;;;;;;11.10;4.50;;;;;;;16.32;68.63;101720.47;3572340;40;20363;-63
2022/05/17 02:31:48;;;;;;;8.60;4.25;;;;;;;16.35;69.18;101725.69;3574165;40;20059;-63
2022/05/17 02:34:13;;;;;;;13.60;4.95;;;;;;;16.34;68.53;101728.53;3574969;40;20058;-64
2022/05/17 02:36:39;;;;;;;8.88;4.60;;;;;;;16.30;68.67;101725.19;3574351;40;20048;-63
2022/05/17 02:39:05;;;;;;;15.32;4.53;;;;;;;16.35;68.74;101724.84;3574494;40;20072;-65
2022/05/17 02:41:30;;;;;;;11.82;4.95;;;;;;;16.36;68.70;101729.28;3574108;40;20048;-64
2022/05/17 02:43:56;;;;;;;11.70;4.78;;;;;;;16.30;68.82;101727.88;3576091;40;20171;-66
2022/05/17 02:46:21;;;;;;;11.32;4.78;;;;;;;16.35;68.55;101741.97;3575339;40;20072;-69
2022/05/17 02:48:47;;;;;;;13.75;4.65;;;;;;;16.37;68.81;101734.59;3574501;40;20106;-64
2022/05/17 02:51:20;;;;;;;12.52;4.68;;;;;;;16.32;68.25;101734.06;3573858;40;20379;-64
2022/05/17 02:53:46;;;;;;;12.50;4.82;;;;;;;16.34;68.65;101739.38;3573741;40;20057;-63
2022/05/17 02:56:11;;;;;;;12.73;4.57;;;;;;;16.36;69.12;101743.69;3575819;40;20376;-64
2022/05/17 02:58:37;;;;;;;9.80;5.00;;;;;;;16.25;68.96;101735.47;3574878;40;20057;-63
2022/05/17 03:01:06;;;;;;;7.97;4.47;;;;;;;16.14;69.20;101716.38;3574604;40;20049;-64
2022/05/17 03:03:36;;;;;;;12.73;4.32;;;;;;;16.28;68.78;101740.69;3575119;40;20068;-64
2022/05/17 03:06:02;;;;;;;9.93;4.60;;;;;;;16.18;69.09;101735.03;3575315;40;20052;-64
2022/05/17 03:08:27;;;;;;;11.60;4.65;;;;;;;16.21;69.53;101739.41;3575204;40;20052;-64
2022/05/17 03:10:53;;;;;;;11.65;4.50;;;;;;;16.05;69.58;101733.28;3575545;40;20061;-63
2022/05/17 03:13:18;;;;;;;8.82;4.50;;;;;;;16.09;69.30;101748.41;3573013;40;20049;-63
2022/05/17 03:15:44;;;;;;;9.45;4.97;;;;;;;16.02;69.94;101745.25;3574827;40;20049;-63
2022/05/17 03:18:10;;;;;;;9.88;4.65;;;;;;;15.53;69.88;101678.13;3576320;40;20064;-63
2022/05/17 03:20:36;;;;;;;11.70;4.50;;;;;;;15.86;70.22;101729.19;3574030;40;20053;-63
2022/05/17 03:23:02;;;;;;;10.82;4.88;;;;;;;15.90;70.41;101746.09;3574190;40;20073;-64
2022/05/17 03:25:27;;;;;;;11.57;4.72;;;;;;;15.83;70.66;101740.25;3576598;40;20048;-64
2022/05/17 03:27:54;;;;;;;10.52;4.68;;;;;;;15.88;70.70;101748.91;3576015;40;20055;-64
2022/05/17 03:30:20;;;;;;;12.43;5.03;;;;;;;15.83;70.89;101740.25;3575712;40;20282;-64
2022/05/17 03:32:46;;;;;;;12.50;4.70;;;;;;;15.81;70.85;101744.88;3575578;40;20055;-64
2022/05/17 03:35:12;;;;;;;11.35;4.70;;;;;;;15.83;70.96;101750.22;3573167;40;20100;-64
2022/05/17 03:37:38;;;;;;;10.27;5.00;;;;;;;15.81;71.08;101752.16;3575284;40;20048;-63
2022/05/17 03:40:07;;;;;;;10.80;5.15;;;;;;;15.71;70.98;101735.66;3572768;40;20061;-64
2022/05/17 03:42:33;;;;;;;11.13;4.75;;;;;;;15.72;71.65;101756.38;3575197;40;20049;-64
2022/05/17 03:44:59;;;;;;;11.85;4.70;;;;;;;15.61;71.76;101748.09;3577718;40;20088;-63
2022/05/17 03:47:24;;;;;;;11.75;4.93;;;;;;;15.61;72.07;101759.78;3574943;40;20056;-63
2022/05/17 03:49:50;;;;;;;8.82;4.50;;;;;;;15.53;71.91;101738.59;3574819;40;20061;-63
2022/05/17 03:52:15;;;;;;;9.20;4.35;;;;;;;15.62;71.94;101747.09;3575213;40;20062;-64
2022/05/17 03:54:41;;;;;;;11.05;4.38;;;;;;;15.67;72.01;101759.41;3577020;40;20126;-64
2022/05/17 03:57:07;;;;;;;9.50;4.85;;;;;;;15.67;72.16;101755.81;3577899;40;20538;-63
2022/05/17 03:59:34;;;;;;;10.20;4.20;;;;;;;15.62;72.04;101750.66;3576529;40;20118;-63
2022/05/17 04:02:00;;;;;;;10.75;4.50;;;;;;;15.66;72.35;101759.47;3576551;40;20056;-63
2022/05/17 04:04:26;;;;;;;8.93;4.50;;;;;;;15.65;72.20;101758.59;3577973;40;20053;-64
2022/05/17 04:06:51;;;;;;;11.00;4.38;;;;;;;15.64;71.98;101761.44;3577612;40;20057;-64
2022/05/17 04:09:17;;;;;;;9.40;4.47;;;;;;;15.66;72.13;101759.47;3576366;40;20125;-64
2022/05/17 04:11:42;;;;;;;11.65;4.53;;;;;;;15.61;72.04;101761.63;3576146;40;20053;-63
2022/05/17 04:14:09;;;;;;;11.68;4.13;;;;;;;15.55;72.63;101750.22;3575154;40;20069;-63
2022/05/17 04:16:38;;;;;;;10.32;3.90;;;;;;;15.70;72.05;101766.47;3573576;40;20108;-63
2022/05/17 04:19:05;;;;;;;10.52;4.35;;;;;;;15.72;72.18;101765.34;3571453;40;20065;-64
2022/05/17 04:21:34;;;;;;;10.20;4.72;;;;;;;15.74;71.71;101767.97;3574732;40;20061;-63
2022/05/17 04:24:00;;;;;;;12.43;4.38;;;;;;;15.67;71.86;101739.56;3571663;40;20077;-63
2022/05/17 04:26:26;;;;;;;11.50;4.45;;;;;;;15.80;72.01;101764.00;3572099;40;20049;-64
2022/05/17 04:28:51;;;;;;;6.68;4.43;;;;;;;15.80;72.19;101772.97;3573370;40;20077;-63
2022/05/17 04:31:18;;;;;;;12.25;4.63;;;;;;;15.83;72.21;101761.94;3572761;40;20480;-64
2022/05/17 04:33:43;;;;;;;9.80;4.38;;;;;;;15.97;72.04;101778.09;3572382;40;20080;-64
2022/05/17 04:36:10;;;;;;;11.90;4.78;;;;;;;15.96;71.94;101761.94;3571210;40;20419;-63
2022/05/17 04:38:37;;;;;;;8.50;4.72;;;;;;;16.06;71.83;101779.31;3573900;40;20047;-64
2022/05/17 04:41:03;;;;;;;12.43;4.63;;;;;;;16.00;71.26;101752.63;3572586;40;20118;-64
2022/05/17 04:43:29;;;;;;;8.90;4.35;;;;;;;16.15;71.34;101773.25;3575270;40;20076;-64
2022/05/17 04:45:57;;;;;;;9.55;4.90;;;;;;;16.22;71.11;101779.09;3573667;40;20126;-64
2022/05/17 04:48:25;;;;;;;9.23;4.32;;;;;;;16.20;71.13;101759.34;3573955;40;20060;-65
2022/05/17 04:50:54;;;;;;;10.07;4.90;;;;;;;16.27;71.47;101763.38;3572552;40;20126;-63
2022/05/17 04:53:20;;;;;;;10.35;4.75;;;;;;;16.30;71.00;101760.44;3570641;40;21044;-64
2022/05/17 04:55:46;;;;;;;16.17;5.13;;;;;;;16.42;70.82;101785.81;3574971;40;20049;-63
2022/05/17 04:58:11;;;;;;;10.60;5.03;;;;;;;16.47;70.14;101768.25;3574864;40;20472;-63
2022/05/17 05:00:37;;;;;;;11.43;5.30;;;;;;;16.53;69.48;101757.94;3575922;40;20049;-64
2022/05/17 05:03:04;;;;;;;17.17;5.80;;;;;;;16.63;68.86;101778.00;3575375;40;20430;-64
2022/05/17 05:05:29;;;;;;;8.90;4.95;;;;;;;16.72;69.54;101782.78;3575731;40;20056;-64
2022/05/17 05:07:56;;;;;;;10.90;5.38;;;;;;;16.83;69.02;101785.59;3575062;40;20063;-65
2022/05/17 05:10:22;;;;;;;10.73;5.63;;;;;;;16.94;68.77;101787.53;3573774;40;20284;-64
2022/05/17 05:12:48;;;;;;;9.52;5.40;;;;;;;16.99;68.58;101796.19;3575136;40;20041;-62
2022/05/17 05:15:15;;;;;;;12.02;5.72;;;;;;;17.03;67.71;101794.13;3574024;40;20123;-63
2022/05/17 05:17:41;;;;;;;8.65;5.00;;;;;;;17.08;68.47;101800.94;3575180;40;20122;-63
2022/05/17 05:20:13;;;;;;;10.88;5.68;;;;;;;17.16;68.08;101803.97;3611609;22;20122;-64
2022/05/17 05:22:39;;;;;;;10.10;5.55;;;;;;;17.23;68.04;101808.97;3584237;40;20052;-65
2022/05/17 05:25:06;;;;;;;11.35;5.40;;;;;;;17.23;67.57;101803.53;3584859;40;20092;-64
2022/05/17 05:27:35;;;;;;;8.57;5.63;;;;;;;17.29;67.29;101798.50;3584699;40;20098;-63
2022/05/17 05:30:04;;;;;;;13.32;5.60;;;;;;;17.34;67.47;101809.00;3584818;40;20120;-64
2022/05/17 05:32:30;;;;;;;12.18;5.22;;;;;;;17.38;66.73;101815.97;3585057;40;20129;-63
2022/05/17 05:34:56;;;;;;;8.15;5.00;;;;;;;17.39;66.81;101813.13;3584717;40;20130;-64
2022/05/17 05:37:22;;;;;;;12.40;5.38;;;;;;;17.44;66.41;101817.34;3581957;40;20291;-64
2022/05/17 05:39:48;;;;;;;8.50;4.63;;;;;;;17.41;65.47;101821.16;3585311;40;20141;-64
2022/05/17 05:42:14;;;;;;;10.77;4.80;;;;;;;17.39;65.55;101825.84;3583316;40;20434;-64
2022/05/17 05:44:40;;;;;;;10.38;4.53;;;;;;;17.40;65.67;101830.31;3586099;40;20055;-64
2022/05/17 05:47:05;;;;;;;9.15;4.50;;;;;;;17.41;66.17;101829.31;3584680;40;20076;-64
2022/05/17 05:49:31;;;;;;;11.23;4.90;;;;;;;17.43;66.00;101827.34;3585153;40;20283;-64
2022/05/17 05:51:57;;;;;;;9.40;5.10;;;;;;;17.46;65.54;101828.97;3584605;40;20048;-63
2022/05/17 05:54:22;;;;;;;9.82;5.10;;;;;;;17.47;65.65;101834.28;3584899;40;20056;-64
2022/05/17 05:56:48;;;;;;;12.02;5.00;;;;;;;17.51;65.82;101835.81;3584434;40;20052;-65
2022/05/17 05:59:13;;;;;;;8.77;4.68;;;;;;;17.55;65.27;101841.91;3584866;40;20371;-64
2022/05/17 06:01:39;;;;;;;13.50;5.03;;;;;;;17.58;65.52;101830.78;3583752;40;20059;-63
2022/05/17 06:04:05;;;;;;;10.85;4.90;;;;;;;17.47;65.42;101800.81;3584695;40;20118;-63
2022/05/17 06:06:32;;;;;;;12.75;4.78;;;;;;;17.70;64.78;101832.59;3587398;40;20056;-64
2022/05/17 06:08:58;;;;;;;10.55;5.20;;;;;;;17.72;66.03;101830.59;3585975;40;20052;-64
2022/05/17 06:11:23;;;;;;;10.82;4.85;;;;;;;17.68;66.50;101820.94;3583033;40;20052;-63
2022/05/17 06:13:50;;;;;;;10.50;4.80;;;;;;;17.32;65.78;101768.38;3584681;40;20084;-64
2022/05/17 06:16:16;;;;;;;11.18;4.53;;;;;;;17.68;66.67;101815.50;3581547;40;20118;-65
2022/05/17 06:18:41;;;;;;;12.93;4.95;;;;;;;17.75;66.52;101826.78;3584112;40;20080;-64
2022/05/17 06:21:08;;;;;;;12.45;5.15;;;;;;;17.76;66.33;101837.56;3583559;40;20058;-64
2022/05/17 06:23:35;;;;;;;7.18;4.50;;;;;;;17.77;67.15;101831.16;3580386;40;20059;-65
2022/05/17 06:26:01;;;;;;;11.90;5.13;;;;;;;17.77;66.62;101833.88;3584852;40;20398;-63
2022/05/17 06:28:28;;;;;;;12.95;5.22;;;;;;;17.66;66.06;101817.47;3584305;40;20090;-64
2022/05/17 06:30:53;;;;;;;14.38;4.93;;;;;;;17.75;66.52;101833.09;3584658;40;20063;-64
2022/05/17 06:33:20;;;;;;;9.23;4.95;;;;;;;17.76;64.86;101833.94;3586574;40;20052;-64
2022/05/17 06:35:48;;;;;;;6.53;4.63;;;;;;;17.78;65.63;101835.59;3582832;39;20059;-64
2022/05/17 06:38:15;;;;;;;15.57;5.93;;;;;;;17.75;64.78;101838.53;3581991;40;20092;-65
2022/05/17 06:40:41;;;;;;;12.60;5.45;;;;;;;17.69;65.01;101828.09;3584773;40;20056;-64
2022/05/17 06:43:08;;;;;;;9.90;5.18;;;;;;;17.80;65.18;101838.22;3584292;40;20093;-65
2022/05/17 06:45:33;;;;;;;8.48;5.47;;;;;;;17.84;65.28;101851.47;3584946;40;20062;-65
2022/05/17 06:48:01;;;;;;;12.25;5.70;;;;;;;17.87;64.62;101847.63;3584429;40;20320;-65
2022/05/17 06:50:28;;;;;;;11.50;6.72;;;;;;;17.86;65.19;101841.34;3585308;40;20052;-65
2022/05/17 06:52:54;;;;;;;12.43;6.45;;;;;;;17.95;64.57;101852.47;3582687;40;20092;-64
2022/05/17 06:55:21;;;;;;;12.48;6.18;;;;;;;17.97;64.03;101858.69;3586117;40;20048;-64
2022/05/17 06:57:48;;;;;;;15.85;5.95;;;;;;;17.98;64.65;101854.97;3585057;40;20040;-64
2022/05/17 07:00:14;;;;;;;12.82;6.20;;;;;;;18.03;65.26;101858.22;3585084;40;20426;-64
2022/05/17 07:02:40;;;;;;;11.57;5.90;;;;;;;18.09;65.05;101852.31;3582516;40;20386;-64
2022/05/17 07:05:08;;;;;;;11.45;5.78;;;;;;;17.99;64.33;101846.69;3583673;40;20061;-64
2022/05/17 07:07:34;;;;;;;11.50;5.93;;;;;;;18.06;64.79;101857.97;3580744;40;20048;-64
2022/05/17 07:15:28;;;;;;;;;;;;;;;18.13;63.57;101870.13;3582981;40;20121;-64
2022/05/17 07:17:54;;;;;;;13.02;5.53;;;;;;;18.13;64.06;101859.22;3585440;40;19936;-64
2022/05/17 07:20:19;;;;;;;11.27;6.07;;;;;;;18.09;65.63;101855.03;3584992;40;20047;-64
2022/05/17 07:22:45;;;;;;;21.23;6.40;;;;;;;18.16;65.72;101859.00;3582948;40;20095;-64
2022/05/17 07:25:11;;;;;;;16.38;6.28;;;;;;;18.20;67.01;101871.38;3584152;40;20056;-64
2022/05/17 07:27:37;;;;;;;13.77;6.50;;;;;;;18.25;67.18;101868.31;3585383;40;20060;-64
2022/05/17 07:30:07;;;;;;;13.38;6.43;;;;;;;18.22;68.13;101861.25;3585513;40;20048;-64
2022/05/17 07:32:33;;;;;;;13.80;6.97;;;;;;;18.27;69.38;101867.22;3583552;40;20063;-64
2022/05/17 07:34:58;;;;;;;16.63;7.60;;;;;;;18.27;68.80;101867.22;3583329;40;20052;-64
2022/05/17 07:37:24;;;;;;;13.68;7.13;;;;;;;18.27;70.11;101860.91;3584689;40;20121;-65
2022/05/17 07:39:49;;;;;;;18.23;6.88;;;;;;;18.16;69.16;101837.22;3584844;39;20075;-65
2022/05/17 07:42:15;;;;;;;12.57;7.63;;;;;;;18.27;68.91;101867.22;3583959;39;20052;-65
2022/05/17 07:44:42;;;;;;;15.57;7.30;;;;;;;18.07;69.58;101840.66;3583201;40;20105;-64
2022/05/17 07:47:07;;;;;;;16.30;7.05;;;;;;;18.25;70.61;101871.88;3584129;40;20078;-65
2022/05/17 07:49:33;;;;;;;13.68;6.55;;;;;;;18.24;70.00;101867.44;3581168;40;20068;-65
2022/05/17 07:52:01;;;;;;;15.80;6.80;;;;;;;18.20;69.95;101867.78;3582493;40;20125;-65
2022/05/17 07:54:28;;;;;;;15.95;6.97;;;;;;;18.22;71.43;101874.00;3584075;40;20056;-65
2022/05/17 07:56:53;;;;;;;16.27;7.35;;;;;;;18.16;71.25;101864.44;3582132;40;20056;-65
2022/05/17 07:59:19;;;;;;;15.27;6.93;;;;;;;18.28;71.94;101868.94;3582231;40;20304;-65
2022/05/17 08:01:45;;;;;;;14.85;7.00;;;;;;;18.35;72.90;101874.75;3583311;40;20442;-64
2022/05/17 08:04:10;;;;;;;16.00;7.30;;;;;;;18.40;72.05;101866.25;3584277;40;20056;-64
2022/05/17 08:06:36;;;;;;;11.93;7.10;;;;;;;18.44;72.63;101871.31;3583417;40;20374;-64
2022/05/17 08:09:03;;;;;;;19.27;7.45;;;;;;;18.49;72.93;101876.41;3583617;40;20090;-64
2022/05/17 08:11:28;;;;;;;16.90;7.07;;;;;;;18.49;71.30;101884.56;3588459;40;20341;-64
2022/05/17 08:13:54;;;;;;;17.02;7.15;;;;;;;18.56;72.19;101883.13;3584043;40;20117;-64
2022/05/17 08:16:20;;;;;;;13.02;6.85;;;;;;;18.61;71.68;101875.44;3583092;40;20086;-65
2022/05/17 08:18:46;;;;;;;15.38;7.28;;;;;;;18.63;72.09;101881.63;3586742;40;20278;-64
2022/05/17 08:21:11;;;;;;;13.23;7.47;;;;;;;18.75;72.52;101879.84;3585859;40;20371;-65
2022/05/17 08:23:37;;;;;;;23.20;7.82;;;;;;;18.83;71.72;101881.94;3583297;40;20310;-64
2022/05/17 08:28:47;;;;;;;14.10;7.30;;;;;;;18.95;70.79;101881.81;3584203;40;20123;-64
2022/05/17 08:31:13;;;;;;;11.68;6.88;;;;;;;19.01;71.16;101880.47;3581517;40;20052;-65
2022/05/17 08:33:39;;;;;;;14.90;7.28;;;;;;;19.04;70.94;101882.09;3584352;40;20376;-65
2022/05/17 08:36:10;;;;;;;15.50;8.05;;;;;;;19.03;70.62;101881.22;3584493;40;20067;-64
2022/05/17 08:38:43;;;;;;;11.02;6.50;;;;;;;19.05;70.02;101875.63;3585086;40;20410;-65
2022/05/17 08:41:18;;;;;;;14.23;6.93;;;;;;;19.02;70.30;101882.19;3585501;40;20061;-65
2022/05/17 08:43:52;;;;;;;15.00;7.13;;;;;;;19.04;69.84;101888.41;3584990;40;20088;-64
2022/05/17 08:46:30;;;;;;;15.88;7.70;;;;;;;19.01;71.74;101864.13;3583096;40;20080;-65
2022/05/17 08:49:16;;;;;;;15.65;7.88;;;;;;;19.17;70.98;101877.38;3585169;40;20300;-64
2022/05/17 08:51:49;;;;;;;16.58;8.52;;;;;;;19.23;68.94;101882.31;3584912;40;20093;-65
2022/05/17 08:54:23;;;;;;;;;;;;;;;19.18;68.55;101874.50;3581734;40;20063;-64
2022/05/17 08:57:22;;;;;;;16.45;7.07;;;;;;;19.24;67.94;101884.91;3583478;40;19940;-65
2022/05/17 08:59:47;;;;;;;10.07;6.47;;;;;;;19.27;66.72;101882.94;3581822;40;20056;-64
2022/05/17 09:02:30;;;;;;;14.38;6.97;;;;;;;19.22;67.64;101873.28;3583564;40;20052;-64
2022/05/17 09:05:20;;;;;;;14.15;7.28;;;;;;;19.25;67.50;101867.56;3582660;40;20441;-64
2022/05/17 09:08:21;;;;;;;14.70;7.80;;;;;;;19.27;67.95;101872.03;3585265;40;20052;-64
2022/05/17 09:11:01;;;;;;;18.90;7.30;;;;;;;19.20;66.88;101850.72;3572899;40;20088;-64
2022/05/17 09:14:10;;;;;;;12.45;6.78;;;;;;;19.46;64.86;101880.41;3579775;40;20048;-64
2022/05/17 09:16:45;;;;;;;11.18;5.70;;;;;;;19.50;65.60;101862.78;3575149;40;20048;-64
2022/05/17 09:19:13;;;;;;;8.57;5.00;;;;;;;19.69;63.31;101871.25;3582756;40;20383;-64
2022/05/17 09:21:48;;;;;;;10.80;5.53;;;;;;;19.74;64.07;101864.53;3585159;40;20084;-64
2022/05/17 09:24:18;;;;;;;10.00;5.05;;;;;;;19.83;64.01;101866.47;3588207;39;20048;-64
2022/05/17 09:27:03;;;;;;;11.55;5.70;;;;;;;19.90;63.25;101862.22;3583750;40;20048;-63
2022/05/17 09:29:36;;;;;;;9.93;5.60;;;;;;;19.94;63.34;101850.91;3587180;40;20133;-64
2022/05/17 09:32:07;;;;;;;9.73;4.93;;;;;;;20.00;62.71;101854.13;3584934;40;20056;-64
2022/05/17 09:34:43;;;;;;;8.20;4.72;;;;;;;20.11;62.71;101856.81;3585580;40;20118;-63
2022/05/17 09:37:13;;;;;;;12.88;5.28;;;;;;;20.17;61.91;101854.41;3584426;40;20048;-65
2022/05/17 09:39:48;;;;;;;9.48;5.18;;;;;;;20.26;61.55;101852.72;3585179;40;20387;-64
2022/05/17 09:42:33;;;;;;;9.43;5.13;;;;;;;20.45;61.38;101845.66;3583342;40;20052;-64
2022/05/17 09:45:14;;;;;;;11.25;5.75;;;;;;;20.68;60.61;101849.13;3584345;40;20316;-64
2022/05/17 09:48:02;;;;;;;13.27;6.20;;;;;;;20.84;59.05;101847.66;3584002;40;20294;-63
2022/05/17 09:53:21;;;;;;;12.18;5.45;;;;;;;21.79;57.20;101835.41;3583062;40;20302;-64
2022/05/17 09:55:56;;;;;;;9.88;4.63;;;;;;;22.51;57.28;101834.03;3582062;40;20063;-64
2022/05/17 09:58:39;;;;;;;8.13;4.55;;;;;;;23.05;55.32;101828.81;3583000;40;20122;-65
2022/05/17 10:01:20;;;;;;;9.07;4.72;;;;;;;23.30;54.32;101833.59;3584753;40;20056;-64
2022/05/17 10:04:09;;;;;;;9.20;4.30;;;;;;;23.52;52.04;101823.19;3587335;40;20052;-64
2022/05/17 10:06:39;;;;;;;9.45;5.53;;;;;;;23.71;50.35;101828.59;3586359;40;20058;-63
2022/05/17 10:09:10;;;;;;;7.68;4.60;;;;;;;23.95;50.33;101822.47;3583731;40;20388;-63
2022/05/17 10:11:57;;;;;;;10.07;3.88;;;;;;;23.94;49.91;101795.16;3584151;40;20052;-63
2022/05/17 10:14:41;;;;;;;7.53;3.30;;;;;;;24.01;49.18;101827.34;3585226;40;20052;-64
2022/05/17 10:17:35;;;;;;;7.32;2.95;;;;;;;23.77;47.65;101791.41;3585144;40;20056;-64
2022/05/17 10:20:19;;;;;;;112.32;58.08;;;;;;;23.93;49.65;101819.00;3580097;40;20060;-64
2022/05/17 10:23:30;;;;;;;6.88;4.00;;;;;;;23.98;49.55;101811.16;3583917;40;20061;-63
2022/05/17 10:26:29;;;;;;;6.88;3.47;;;;;;;24.05;49.39;101811.38;3584754;40;20052;-64
2022/05/17 10:29:09;;;;;;;8.93;3.50;;;;;;;24.01;48.09;101815.50;3583838;40;20056;-63
2022/05/17 10:31:50;;;;;;;8.02;3.55;;;;;;;23.99;48.20;101812.03;3584309;40;20041;-63
2022/05/17 10:34:25;;;;;;;7.57;3.42;;;;;;;23.99;47.97;101801.03;3583547;40;20111;-63
2022/05/17 10:37:09;;;;;;;4.40;2.67;;;;;;;24.12;47.98;101803.38;3582898;40;20057;-64
2022/05/17 10:40:18;;;;;;;7.38;2.90;;;;;;;24.30;46.67;101799.56;3583635;40;20056;-63
2022/05/17 10:42:44;;;;;;;7.35;2.80;;;;;;;24.58;48.44;101807.69;3571534;40;20450;-63
2022/05/17 10:45:20;;;;;;;9.55;3.00;;;;;;;24.75;46.06;101798.50;3571758;40;20061;-63
2022/05/17 10:48:28;;;;;;;5.72;2.58;;;;;;;24.99;45.19;101807.88;3581798;39;20064;-63
2022/05/17 10:51:47;;;;;;;4.80;2.88;;;;;;;25.10;44.60;101784.72;3582245;40;20052;-63
2022/05/17 10:54:34;;;;;;;6.65;3.33;;;;;;;25.20;44.07;101789.06;3578832;40;20063;-62
2022/05/17 10:57:32;;;;;;;7.65;4.15;;;;;;;25.41;43.29;101798.78;3579619;40;20145;-63
2022/05/17 11:00:29;;;;;;;11.93;5.93;;;;;;;25.60;42.41;101795.72;3581429;40;20051;-63
2022/05/17 11:03:24;;;;;;;6.28;2.97;;;;;;;25.64;42.46;101794.31;3583694;40;20048;-63
2022/05/17 11:06:29;;;;;;;6.72;3.35;;;;;;;25.96;41.73;101792.66;3581696;40;20048;-64
2022/05/17 11:09:48;;;;;;;9.93;3.63;;;;;;;26.24;42.74;101784.03;3580973;40;20052;-64
2022/05/17 11:12:22;;;;;;;7.93;3.90;;;;;;;26.46;41.83;101776.94;3580665;40;20117;-63
2022/05/17 11:14:54;;;;;;;5.82;3.72;;;;;;;26.65;43.03;101772.94;3580643;40;20048;-63
2022/05/17 11:17:50;;;;;;;6.88;4.63;;;;;;;26.84;40.52;101773.38;3580898;40;20062;-63
2022/05/17 11:20:32;;;;;;;10.23;4.90;;;;;;;26.89;39.85;101767.31;3579708;40;20096;-64
2022/05/17 11:23:20;;;;;;;8.88;4.40;;;;;;;26.97;39.84;101770.03;3652066;22;20055;-65
2022/05/17 11:26:44;;;;;;;6.65;3.85;;;;;;;27.36;39.53;101768.31;3589962;39;20048;-64
2022/05/17 11:30:03;;;;;;;9.88;4.95;;;;;;;27.70;38.65;101763.22;3588195;39;20390;-66
2022/05/17 11:32:34;;;;;;;9.45;5.93;;;;;;;27.73;38.32;101748.19;3588994;39;20047;-65
2022/05/17 11:35:23;;;;;;;13.63;7.80;;;;;;;27.91;39.00;101747.88;3591123;40;20075;-65
2022/05/17 11:37:51;;;;;;;12.27;4.70;;;;;;;27.88;37.49;101724.25;3588381;40;21615;-66
2022/05/17 11:40:47;;;;;;;9.57;4.60;;;;;;;28.24;37.39;101742.91;3589984;40;20429;-65
2022/05/17 11:46:28;;;;;;;6.40;3.90;;;;;;;28.54;36.66;101729.09;3590667;40;20062;-65
2022/05/17 11:49:13;;;;;;;8.05;3.53;;;;;;;28.79;35.98;101727.75;3590139;40;20489;-65
2022/05/17 11:52:00;;;;;;;8.65;3.03;;;;;;;29.02;36.65;101716.56;3590750;40;20052;-63
2022/05/17 11:54:51;;;;;;;6.40;2.90;;;;;;;29.33;36.00;101702.41;3591048;40;20074;-64